createdAt,value
2024-02-17T10:08:48.645Z,194.93288590604027
2024-02-17T10:14:11.924Z,180.68456375838926
2024-02-17T10:18:00.290Z,151.83892617449663
2024-02-17T10:21:21.204Z,119.32885906040268
2024-02-17T10:33:07.195Z,89.18120805369128
2024-02-17T10:36:28.329Z,74.59060402684564
2024-02-17T10:39:49.174Z,90.56375838926175
2024-02-17T10:43:09.017Z,82.69798657718121
2024-02-17T10:46:29.199Z,74.68456375838926
2024-02-17T10:51:36.443Z,54.15436241610738
2024-02-17T10:54:57.531Z,88.54362416107382
2024-02-17T10:58:17.562Z,93.26845637583892
2024-02-17T11:01:39.746Z,74.79194630872483
2024-02-17T11:05:00.696Z,79.12751677852349
2024-02-17T11:08:20.508Z,79.48322147651007
2024-02-17T11:11:41.600Z,90.97315436241611
2024-02-17T11:15:01.984Z,110.32214765100672
2024-02-17T11:18:37.890Z,85.90604026845638
2024-02-17T11:21:58.802Z,56.83892617449664
2024-02-17T11:25:18.931Z,57.69798657718121
2024-02-17T11:28:39.091Z,53.02013422818792
2024-02-17T11:31:59.888Z,70.55704697986577
2024-02-17T11:35:19.457Z,81.68456375838926
2024-02-17T11:38:40.302Z,94.20805369127517
2024-02-17T11:42:00.871Z,82.93288590604027
2024-02-17T11:45:20.991Z,89.6510067114094
2024-02-17T11:48:41.766Z,177.29530201342283
2024-02-17T11:52:01.639Z,199.2214765100671
2024-02-17T12:03:27.460Z,143.54362416107384
2024-02-17T12:06:48.450Z,110.98657718120805
2024-02-17T12:10:08.400Z,104.24832214765101
2024-02-17T12:13:28.502Z,109.4496644295302
2024-02-17T12:16:48.493Z,99.13422818791946
2024-02-17T12:20:09.203Z,74.02013422818791
2024-02-17T12:23:29.037Z,76.93959731543625
2024-02-17T12:26:49.705Z,72.1006711409396
2024-02-17T12:30:10.116Z,87.40268456375838
2024-02-17T12:33:31.071Z,135.3489932885906
2024-02-17T12:37:56.829Z,114.58389261744966
2024-02-17T12:41:17.184Z,99.04026845637584
2024-02-17T12:44:37.636Z,79.69127516778524
2024-02-17T12:47:57.981Z,64.06040268456375
2024-02-17T12:53:05.442Z,303.1140939597315
2024-02-17T12:56:26.427Z,136.40939597315437
2024-02-17T13:01:56.459Z,124.69127516778524
2024-02-17T13:05:16.560Z,62.67785234899329
2024-02-17T13:08:36.677Z,63.033557046979865
2024-02-17T13:11:57.249Z,103.08053691275168
2024-02-17T13:15:16.759Z,73.28187919463087
2024-02-17T13:18:38.347Z,70.0
2024-02-17T13:21:58.306Z,63.16778523489933
2024-02-17T13:25:18.939Z,76.60402684563758
2024-02-17T13:28:39.502Z,84.1744966442953
2024-02-17T13:31:59.461Z,89.34228187919463
2024-02-17T13:35:19.746Z,80.53691275167785
2024-02-17T13:38:40.606Z,131.84563758389262
2024-02-17T13:42:00.873Z,121.71140939597315
2024-02-17T13:45:21.824Z,88.48322147651007
2024-02-17T13:48:43.469Z,81.9261744966443
2024-02-17T13:52:03.602Z,76.98657718120805
2024-02-17T13:55:44.496Z,92.1744966442953
2024-02-17T13:59:04.940Z,120.32214765100672
2024-02-17T14:02:25.103Z,135.85906040268458
2024-02-17T14:05:45.935Z,147.2281879194631
2024-02-17T14:09:06.665Z,167.25503355704697
2024-02-17T14:12:26.318Z,177.3020134228188
2024-02-17T14:15:46.708Z,202.40939597315437
2024-02-17T14:19:07.705Z,207.78523489932886
2024-02-17T14:23:51.540Z,96.46308724832215
2024-02-17T14:27:11.660Z,77.0
2024-02-17T14:30:33.245Z,102.69127516778524
2024-02-17T14:33:54.585Z,91.21476510067114
2024-02-17T14:37:15.151Z,69.32885906040268
2024-02-17T14:40:36.458Z,98.76510067114094
2024-02-17T14:43:57.352Z,87.24161073825503
2024-02-17T14:47:55.460Z,67.2751677852349
2024-02-17T14:51:16.176Z,71.80536912751678
2024-02-17T14:54:40.896Z,63.34228187919463
2024-02-17T14:58:03.722Z,69.4496644295302
2024-02-17T15:01:24.249Z,70.6241610738255
2024-02-17T15:04:45.108Z,68.61073825503355
2024-02-17T15:08:04.750Z,51.4496644295302
2024-02-17T15:11:24.815Z,68.2751677852349
2024-02-17T15:22:48.681Z,77.48993288590604
2024-02-17T15:36:44.821Z,82.79194630872483
2024-02-17T15:40:05.413Z,77.60402684563758
2024-02-17T15:43:25.181Z,70.1006711409396
2024-02-17T15:46:46.003Z,68.59731543624162
2024-02-17T15:50:06.093Z,61.261744966442954
2024-02-17T15:53:27.343Z,68.88590604026845
2024-02-17T15:56:48.916Z,68.63758389261746
2024-02-17T16:00:09.796Z,82.56375838926175
2024-02-17T16:03:31.173Z,105.09395973154362
2024-02-17T16:06:51.592Z,119.48322147651007
2024-02-17T16:10:12.174Z,135.7718120805369
2024-02-17T16:13:32.861Z,95.8993288590604
2024-02-17T16:16:53.834Z,81.20805369127517
2024-02-17T16:20:15.122Z,106.63758389261746
2024-02-17T16:23:36.188Z,116.4496644295302
2024-02-17T16:26:56.143Z,169.35570469798657
2024-02-17T16:30:17.190Z,176.61073825503357
2024-02-17T16:33:38.377Z,158.45637583892616
2024-02-17T16:36:59.212Z,150.6241610738255
2024-02-17T16:40:20.614Z,639.8456375838927
2024-02-17T16:43:41.472Z,614.9865771812081
2024-02-17T16:47:02.990Z,489.19463087248323
2024-02-17T16:50:25.596Z,507.28187919463085
2024-02-17T16:54:22.011Z,547.993288590604
2024-02-17T16:57:45.611Z,825.2953020134228
2024-02-17T17:02:07.043Z,792.1342281879195
2024-02-17T17:05:32.553Z,418.0536912751678
2024-02-17T17:08:59.957Z,307.3288590604027
2024-02-17T17:12:26.477Z,258.5302013422819
2024-02-17T17:15:48.847Z,221.68456375838926
2024-02-17T17:19:12.772Z,195.61744966442953
2024-02-17T17:22:42.409Z,206.04697986577182
2024-02-17T17:26:07.201Z,211.16778523489933
2024-02-17T17:29:28.923Z,238.3758389261745
2024-02-17T17:32:49.224Z,224.25503355704697
2024-02-17T17:36:09.161Z,238.0738255033557
2024-02-17T17:39:29.683Z,225.65771812080536
2024-02-17T17:43:39.599Z,208.71812080536913
2024-02-17T17:47:00.573Z,231.6778523489933
2024-02-17T17:50:20.694Z,223.59060402684563
2024-02-17T17:53:41.881Z,238.34228187919464
2024-02-17T17:58:57.044Z,229.6510067114094
2024-02-17T18:02:16.597Z,254.4496644295302
2024-02-17T18:05:36.762Z,296.61744966442956
2024-02-17T18:08:58.055Z,616.993288590604
2024-02-17T18:15:28.337Z,1161.0268456375838
2024-02-17T18:19:27.753Z,1180.731543624161
2024-02-17T18:22:48.276Z,1107.778523489933
2024-02-17T18:26:09.060Z,1074.248322147651
2024-02-17T18:32:34.098Z,908.1543624161073
2024-02-17T18:35:54.116Z,841.4429530201343
2024-02-17T18:39:14.046Z,800.5906040268457
2024-02-17T18:42:34.160Z,790.9597315436241
2024-02-17T18:50:11.059Z,777.3489932885906
2024-02-17T18:54:57.669Z,716.1342281879195
2024-02-17T19:01:05.689Z,754.6711409395973
2024-02-17T19:04:25.619Z,743.6979865771812
2024-02-17T19:07:45.804Z,800.9127516778524
2024-02-17T19:11:06.203Z,833.3221476510067
2024-02-17T19:14:26.623Z,829.6442953020135
2024-02-17T19:17:46.843Z,854.1409395973154
2024-02-17T19:21:06.577Z,799.9261744966443
2024-02-17T19:24:26.574Z,757.3221476510067
2024-02-17T19:27:47.860Z,728.1409395973154
2024-02-17T19:31:08.546Z,722.9731543624162
2024-02-17T19:40:29.714Z,822.7651006711409
2024-02-17T19:43:50.349Z,832.6442953020135
2024-02-17T19:47:10.935Z,926.4362416107383
2024-02-17T19:50:31.413Z,984.261744966443
2024-02-17T19:56:25.197Z,1068.8255033557048
2024-02-17T19:59:45.354Z,1028.2147651006712
2024-02-17T20:03:05.943Z,973.7114093959732
2024-02-17T20:09:05.322Z,843.2214765100671
2024-02-17T20:12:25.398Z,814.0
2024-02-17T20:16:44.704Z,779.9731543624162
2024-02-17T20:20:05.023Z,773.4630872483222
2024-02-17T20:23:25.425Z,788.7181208053692
2024-02-17T20:26:46.213Z,791.5838926174497
2024-02-17T20:30:05.759Z,698.3422818791946
2024-02-17T20:33:25.923Z,666.0671140939597
2024-02-17T20:38:28.741Z,637.9664429530201
2024-02-17T20:41:48.372Z,684.6778523489933
2024-02-17T20:45:08.596Z,648.8926174496644
2024-02-17T20:48:28.512Z,619.7651006711409
2024-02-17T20:51:49.416Z,579.4026845637584
2024-02-17T20:55:09.434Z,591.4563758389262
2024-02-17T20:58:29.306Z,599.1946308724832
2024-02-17T21:01:49.769Z,610.738255033557
2024-02-17T21:05:09.861Z,682.503355704698
2024-02-17T21:08:29.317Z,742.7181208053692
2024-02-17T21:12:03.937Z,750.1812080536913
2024-02-17T21:15:24.386Z,743.3422818791946
2024-02-17T21:18:44.988Z,712.8926174496644
2024-02-17T21:22:43.275Z,704.0
2024-02-17T21:26:02.835Z,660.6107382550335
2024-02-17T21:29:22.676Z,693.5436241610738
2024-02-17T21:33:24.753Z,682.1543624161073
2024-02-17T21:36:45.423Z,682.2080536912752
2024-02-17T21:40:06.172Z,693.9463087248322
2024-02-17T21:48:25.835Z,773.6375838926175
2024-02-17T21:53:38.389Z,761.3489932885906
2024-02-17T21:58:45.412Z,817.6845637583892
2024-02-17T22:02:08.432Z,840.2818791946308
2024-02-17T22:05:29.116Z,787.5704697986578
2024-02-17T22:08:49.556Z,786.5771812080537
2024-02-17T22:15:05.430Z,785.2348993288591
2024-02-17T22:19:21.689Z,753.1140939597316
2024-02-17T22:22:42.664Z,742.3422818791946
2024-02-17T22:26:02.613Z,783.1208053691275
2024-02-17T22:29:22.891Z,795.8120805369127
2024-02-17T22:32:42.756Z,790.51677852349
2024-02-17T22:38:25.564Z,832.7785234899329
2024-02-17T22:41:45.874Z,802.0201342281879
2024-02-17T22:45:06.007Z,785.8791946308725
2024-02-17T22:48:26.572Z,782.8322147651006
2024-02-17T22:51:47.884Z,798.5234899328859
2024-02-17T22:55:24.909Z,828.7919463087248
2024-02-17T22:58:45.480Z,830.5503355704698
2024-02-17T23:02:07.396Z,843.5369127516778
2024-02-17T23:05:27.463Z,814.8590604026846
2024-02-17T23:08:48.127Z,823.48322147651
2024-02-17T23:12:07.970Z,781.2214765100671
2024-02-17T23:15:27.973Z,775.2751677852349
2024-02-17T23:18:48.422Z,763.1677852348994
2024-02-17T23:22:08.642Z,766.9865771812081
2024-02-17T23:25:28.957Z,770.489932885906
2024-02-17T23:28:49.412Z,758.3691275167786
2024-02-17T23:32:09.573Z,915.6711409395973
2024-02-17T23:35:29.593Z,955.5906040268457
2024-02-17T23:38:49.871Z,950.2416107382551
2024-02-17T23:42:10.487Z,972.7919463087248
2024-02-17T23:45:46.864Z,948.0939597315436
2024-02-17T23:49:07.114Z,948.7248322147651
2024-02-17T23:53:47.905Z,852.2818791946308
2024-02-17T23:57:08.264Z,790.9530201342282
